Frazer, Montana
Current Conditions -  °F | °C
As of 8:53 PM on Sunday 21 Dec 2014 (Local Time) from KOLF Reporting Station
Overcast Overcast  
Wind Chill: 27°   Ceiling: 2300
Heat Index: 35°   Visibility: 10mi
Dew Point: 32°   Wind: 10mph
Humidity: 89%   Direction: 260°W
Pressure: 29.41"   Gusts: NA
Location:  48.06°N, 106.05°W
Report Text: KOLF 220353Z AUTO 26009KT 10SM BKN023 OVC036 02/00 A2941 RMK AO2 SLP983 T00170000
Loading
Personal Weather Stations






























Interactive Weather Map New forecast layout! Learn more

10-Day Weather Forecast

Advertisements
Track Severe Weather on mobile